Time;durP1;ratioP1;P1;durP2;ratioP2;P2;SDS_P1;SDS_P2;PMS_P1;PMS_P2;Temp;Humidity;BMP_temperature;BMP_pressure;BME280_temperature;BME280_humidity;BME280_pressure;Samples;Min_cycle;Max_cycle;Signal;HPM_P1;HPM_P2
2023/07/10 00:08:00;;;;;;;3.58;3.10;;;;;;;26.38;42.31;100630.00;20992720;28;20040;-73
2023/07/10 00:18:04;;;;;;;3.13;2.88;;;;;;;26.53;44.41;100605.19;20991352;28;20124;-73
2023/07/10 00:28:17;;;;;;;3.60;3.30;;;;;;;26.64;45.30;100593.63;20992491;28;20033;-75
2023/07/10 00:38:28;;;;;;;2.83;2.53;;;;;;;26.71;45.93;100593.94;20991642;28;20094;-74
2023/07/10 00:48:40;;;;;;;2.97;2.70;;;;;;;26.90;46.12;100597.28;20990423;28;20036;-74
2023/07/10 00:58:47;;;;;;;2.95;2.70;;;;;;;27.03;46.02;100603.88;21001169;28;20029;-75
2023/07/10 01:09:05;;;;;;;2.73;2.53;;;;;;;27.09;45.99;100605.41;21006957;28;20032;-75
2023/07/10 01:19:15;;;;;;;3.08;2.70;;;;;;;27.13;45.93;100614.81;21005677;28;20078;-77
2023/07/10 01:29:25;;;;;;;3.15;2.53;;;;;;;27.28;45.92;100642.41;21005804;28;20043;-76
2023/07/10 01:39:39;;;;;;;2.40;2.03;;;;;;;27.32;46.25;100643.38;21004336;28;20036;-75
2023/07/10 01:49:46;;;;;;;2.20;2.00;;;;;;;27.43;46.10;100626.19;21004800;28;20049;-74
2023/07/10 01:59:51;;;;;;;2.50;2.30;;;;;;;27.35;46.14;100597.78;21004922;28;20094;-75
2023/07/10 02:09:52;;;;;;;2.40;2.20;;;;;;;27.53;46.41;100617.41;21011218;28;20037;-74
2023/07/10 02:19:54;;;;;;;2.13;1.92;;;;;;;27.58;46.46;100622.84;21013281;28;20373;-74
2023/07/10 02:29:55;;;;;;;1.80;1.70;;;;;;;27.47;46.45;100616.75;21005961;28;20040;-74
2023/07/10 02:39:57;;;;;;;2.08;1.88;;;;;;;27.65;46.27;100636.41;20997964;28;20041;-75
2023/07/10 02:49:58;;;;;;;2.35;2.05;;;;;;;27.57;46.50;100618.38;20998701;28;20044;-75
2023/07/10 02:59:59;;;;;;;1.65;1.55;;;;;;;27.72;46.23;100625.47;20997212;28;20121;-73
2023/07/10 03:10:01;;;;;;;1.90;1.52;;;;;;;27.76;46.22;100613.22;20996665;28;20098;-74
2023/07/10 03:20:04;;;;;;;1.80;1.60;;;;;;;27.70;46.48;100608.91;20996876;28;20048;-74
2023/07/10 03:30:06;;;;;;;1.65;1.55;;;;;;;27.83;46.57;100635.22;20995439;28;20545;-74
2023/07/10 03:40:08;;;;;;;1.55;1.40;;;;;;;27.85;46.46;100621.63;20995986;28;20032;-75
2023/07/10 03:50:10;;;;;;;1.45;1.35;;;;;;;27.85;46.47;100644.94;20994513;28;20098;-73
2023/07/10 04:00:11;;;;;;;1.50;1.40;;;;;;;27.92;46.41;100638.00;20992648;28;20048;-73
2023/07/10 04:10:13;;;;;;;1.63;1.52;;;;;;;27.94;46.48;100630.03;20994142;28;20047;-76
2023/07/10 04:20:14;;;;;;;1.48;1.30;;;;;;;27.96;46.30;100624.94;20992954;28;20036;-73
2023/07/10 04:30:15;;;;;;;1.35;1.25;;;;;;;27.93;46.14;100623.59;20996870;28;20052;-74
2023/07/10 04:40:17;;;;;;;1.52;1.30;;;;;;;28.03;46.25;100622.41;21009056;28;20093;-73
2023/07/10 04:50:18;;;;;;;1.70;1.60;;;;;;;27.90;46.01;100603.75;21006375;28;20114;-73
2023/07/10 05:00:20;;;;;;;1.58;1.30;;;;;;;28.07;46.06;100629.00;21006805;28;20392;-73
2023/07/10 05:10:21;;;;;;;1.33;1.08;;;;;;;28.08;46.19;100622.22;21006820;28;20086;-73
2023/07/10 05:20:23;;;;;;;1.27;1.17;;;;;;;28.09;45.90;100638.78;21005600;28;20396;-73
2023/07/10 05:30:24;;;;;;;1.40;1.10;;;;;;;28.11;46.12;100624.34;21005337;28;20028;-72
2023/07/10 05:40:26;;;;;;;2.05;0.90;;;;;;;28.12;46.13;100631.63;21003102;28;20177;-73
2023/07/10 05:50:27;;;;;;;1.10;0.95;;;;;;;28.14;46.18;100632.13;21002949;28;20052;-73
2023/07/10 06:00:28;;;;;;;0.77;0.77;;;;;;;28.15;45.85;100635.75;21001991;28;20090;-73
2023/07/10 06:10:30;;;;;;;0.98;0.90;;;;;;;28.15;46.26;100607.63;21001283;28;20032;-72
2023/07/10 06:20:31;;;;;;;0.82;0.75;;;;;;;28.16;46.05;100612.91;21000759;28;20044;-73
2023/07/10 06:30:32;;;;;;;0.82;0.80;;;;;;;28.16;46.09;100626.97;20999629;28;20033;-74
2023/07/10 06:40:34;;;;;;;0.90;0.73;;;;;;;26.83;46.26;100422.88;20998111;28;20462;-75
2023/07/10 06:50:36;;;;;;;0.80;0.80;;;;;;;28.17;45.95;100634.25;21020449;28;20040;-74
2023/07/10 07:00:37;;;;;;;0.80;0.80;;;;;;;28.17;46.19;100599.66;21002832;28;20408;-74
2023/07/10 07:10:42;;;;;;;1.05;0.88;;;;;;;28.18;46.09;100612.56;20996720;28;20095;-73
2023/07/10 07:20:43;;;;;;;0.70;0.70;;;;;;;28.16;45.99;100587.59;20995932;28;20425;-73
2023/07/10 07:30:47;;;;;;;0.75;0.75;;;;;;;28.14;46.17;100577.84;20995666;28;20051;-72
2023/07/10 07:40:54;;;;;;;0.77;0.77;;;;;;;28.22;46.12;100600.28;20993869;28;20044;-72
2023/07/10 07:50:58;;;;;;;0.90;0.82;;;;;;;28.23;45.92;100598.31;20993373;28;20039;-72
2023/07/10 08:00:59;;;;;;;0.98;0.98;;;;;;;28.23;45.91;100595.50;20993696;28;20450;-73
2023/07/10 08:11:01;;;;;;;1.00;0.90;;;;;;;28.23;46.19;100604.78;20991398;28;20040;-73
2023/07/10 08:21:04;;;;;;;0.80;0.80;;;;;;;28.13;46.29;100582.63;20992346;28;20043;-74
2023/07/10 08:31:05;;;;;;;0.82;0.82;;;;;;;28.15;46.11;100602.00;20994732;28;20040;-74
2023/07/10 08:41:24;;;;;;;0.68;0.68;;;;;;;28.17;46.12;100577.97;20991898;28;20101;-72
2023/07/10 08:51:48;;;;;;;1.02;0.93;;;;;;;28.23;46.05;100565.38;20990921;28;20439;-73
2023/07/10 09:01:50;;;;;;;1.00;0.80;;;;;;;28.24;46.26;100574.66;20991137;28;20040;-75
2023/07/10 09:11:56;;;;;;;2.33;1.00;;;;;;;28.22;46.12;100586.22;20991059;28;20032;-74
2023/07/10 09:21:57;;;;;;;0.80;0.80;;;;;;;28.10;46.23;100553.22;21002231;28;20101;-74
2023/07/10 09:31:59;;;;;;;1.13;1.02;;;;;;;28.25;46.08;100602.44;21004680;28;20090;-73
2023/07/10 09:42:04;;;;;;;1.25;0.70;;;;;;;28.25;46.33;100607.25;21004048;28;20033;-73
2023/07/10 09:52:29;;;;;;;0.82;0.82;;;;;;;28.21;46.34;100612.72;21003860;28;20037;-72
2023/07/10 10:02:42;;;;;;;0.88;0.88;;;;;;;28.20;46.17;100602.63;21002115;28;20446;-74
2023/07/10 10:12:50;;;;;;;1.30;0.85;;;;;;;28.19;46.43;100615.06;21002699;28;20066;-73
2023/07/10 10:22:51;;;;;;;0.82;0.80;;;;;;;28.23;46.48;100616.03;21001466;28;20474;-72
2023/07/10 10:33:14;;;;;;;0.95;0.90;;;;;;;28.21;46.39;100623.97;21000019;28;20066;-73
2023/07/10 10:43:34;;;;;;;1.10;1.00;;;;;;;28.19;46.17;100637.56;21000692;28;20106;-73
2023/07/10 10:53:44;;;;;;;1.13;0.90;;;;;;;28.20;46.33;100661.72;20997984;28;20434;-73
2023/07/10 11:04:13;;;;;;;0.80;0.80;;;;;;;28.23;46.34;100671.47;20998270;28;20044;-73
2023/07/10 11:14:13;;;;;;;0.90;0.82;;;;;;;28.23;46.44;100661.03;20996048;28;20483;-73
2023/07/10 11:24:37;;;;;;;0.93;0.90;;;;;;;28.16;46.28;100646.66;20996763;28;20025;-73
2023/07/10 11:34:52;;;;;;;0.73;0.70;;;;;;;27.85;46.30;100611.22;20995394;28;20036;-73
2023/07/10 11:45:00;;;;;;;1.20;1.10;;;;;;;28.20;46.41;100746.13;20995502;28;20082;-72
2023/07/10 11:55:11;;;;;;;1.10;1.00;;;;;;;28.21;46.22;100787.16;20994056;28;20032;-72
2023/07/10 12:05:23;;;;;;;0.88;0.88;;;;;;;28.22;46.37;100794.44;20993902;28;20044;-73
2023/07/10 12:15:27;;;;;;;0.90;0.68;;;;;;;28.18;46.32;100798.25;20992697;28;20033;-71
2023/07/10 12:25:29;;;;;;;1.05;0.95;;;;;;;28.22;46.51;100805.69;20992307;28;20032;-72
2023/07/10 12:35:34;;;;;;;0.98;0.90;;;;;;;28.23;46.31;100812.97;20992409;28;20094;-72
2023/07/10 12:45:39;;;;;;;1.70;0.90;;;;;;;28.24;46.53;100820.25;20991833;28;20041;-72
2023/07/10 12:55:41;;;;;;;0.80;0.80;;;;;;;28.19;46.44;100800.75;21002368;28;20673;-72
2023/07/10 13:05:50;;;;;;;0.80;0.80;;;;;;;28.17;46.61;100807.84;21006820;28;20349;-72
2023/07/10 13:15:57;;;;;;;0.82;0.82;;;;;;;28.24;46.44;100827.88;21006619;28;20037;-72
2023/07/10 13:25:59;;;;;;;1.25;1.15;;;;;;;28.23;46.45;100835.50;21005204;28;20040;-73
2023/07/10 13:36:01;;;;;;;0.70;0.70;;;;;;;28.25;46.49;100833.16;21004556;28;20529;-73
2023/07/10 13:46:24;;;;;;;0.82;0.82;;;;;;;28.12;46.63;100815.28;21003672;28;20044;-73
2023/07/10 13:56:33;;;;;;;0.80;0.80;;;;;;;28.22;46.54;100816.13;21003067;28;20044;-73
2023/07/10 14:06:37;;;;;;;1.15;0.95;;;;;;;28.26;46.73;100819.91;21001862;28;20036;-73
2023/07/10 14:16:39;;;;;;;1.10;1.00;;;;;;;28.25;46.61;100810.66;20999884;28;20093;-71
2023/07/10 14:26:40;;;;;;;1.73;1.10;;;;;;;28.26;46.56;100833.97;21000705;28;20048;-72
2023/07/10 14:36:44;;;;;;;0.80;0.80;;;;;;;28.20;46.66;100802.38;20998948;28;20480;-72
2023/07/10 14:46:46;;;;;;;1.25;1.15;;;;;;;28.22;46.75;100816.94;20999608;28;20393;-72
2023/07/10 14:56:47;;;;;;;1.30;1.20;;;;;;;28.07;46.68;100786.53;21001191;28;20090;-71
2023/07/10 15:06:48;;;;;;;1.25;1.15;;;;;;;28.27;46.48;100833.66;21011605;28;20173;-73
2023/07/10 15:16:53;;;;;;;0.85;0.85;;;;;;;28.27;46.52;100844.94;21004856;28;20032;-72
2023/07/10 15:26:54;;;;;;;1.00;1.00;;;;;;;28.27;46.76;100813.97;20996222;28;20090;-72
2023/07/10 15:36:55;;;;;;;1.25;1.15;;;;;;;28.24;46.48;100831.50;20995646;28;20125;-72
2023/07/10 15:46:57;;;;;;;1.15;1.08;;;;;;;28.28;46.41;100837.31;20994385;28;20391;-71
2023/07/10 15:56:58;;;;;;;2.00;1.25;;;;;;;28.27;46.58;100836.47;20993582;28;20458;-72
2023/07/10 16:06:59;;;;;;;1.45;1.30;;;;;;;28.29;46.51;100836.97;20993727;28;20059;-73
2023/07/10 16:17:01;;;;;;;1.35;1.20;;;;;;;28.23;46.64;100841.13;20993513;28;20032;-73
2023/07/10 16:27:03;;;;;;;1.73;1.63;;;;;;;28.29;46.74;100839.78;20997732;28;20045;-72
2023/07/10 16:37:12;;;;;;;1.27;1.17;;;;;;;28.31;46.78;100825.34;21009552;28;20090;-72
2023/07/10 16:47:17;;;;;;;1.55;1.45;;;;;;;28.32;46.62;100808.16;21008296;28;20404;-72
2023/07/10 16:57:19;;;;;;;1.40;1.30;;;;;;;28.33;46.72;100804.19;21007496;28;20040;-72
2023/07/10 17:07:20;;;;;;;1.67;1.50;;;;;;;28.31;46.70;100811.28;21006937;28;20086;-74
2023/07/10 17:17:25;;;;;;;1.75;1.45;;;;;;;28.36;46.57;100797.94;21006370;28;20028;-72
2023/07/10 17:27:28;;;;;;;1.70;1.60;;;;;;;28.38;46.71;100810.81;21004959;28;20040;-72
2023/07/10 17:37:32;;;;;;;1.88;1.45;;;;;;;28.33;46.63;100795.75;21004403;28;20090;-72
2023/07/10 17:47:34;;;;;;;1.73;1.63;;;;;;;28.38;46.67;100799.56;21004008;28;20049;-72
2023/07/10 17:57:35;;;;;;;1.60;1.50;;;;;;;28.41;46.80;100808.19;21003192;28;20029;-71
2023/07/10 18:07:36;;;;;;;2.28;2.00;;;;;;;28.39;46.83;100789.97;21001918;28;20051;-72
2023/07/10 18:17:38;;;;;;;1.60;1.50;;;;;;;28.44;46.78;100799.03;21001592;28;20113;-72
2023/07/10 18:27:45;;;;;;;2.10;1.95;;;;;;;28.34;46.72;100774.91;21000456;28;20044;-73
2023/07/10 18:37:47;;;;;;;1.88;1.77;;;;;;;28.33;46.93;100773.22;20999949;28;20020;-71
2023/07/10 18:47:49;;;;;;;1.92;1.80;;;;;;;28.47;46.68;100789.13;20998723;28;20082;-73
2023/07/10 18:57:50;;;;;;;1.85;1.75;;;;;;;28.50;46.77;100765.91;20998059;28;20476;-73
2023/07/10 19:07:51;;;;;;;1.73;1.63;;;;;;;28.43;46.85;100760.81;20997781;28;20491;-72
2023/07/10 19:17:54;;;;;;;2.05;1.70;;;;;;;28.43;46.71;100763.63;20997231;28;20033;-72
2023/07/10 19:27:55;;;;;;;2.33;1.70;;;;;;;28.52;46.92;100772.03;20995684;28;20070;-72
2023/07/10 19:37:57;;;;;;;1.70;1.50;;;;;;;28.52;46.97;100757.97;20994483;28;20024;-73
2023/07/10 19:48:01;;;;;;;1.92;1.77;;;;;;;28.48;46.98;100756.97;20993366;28;20059;-72
2023/07/10 19:58:16;;;;;;;1.50;1.40;;;;;;;28.51;46.78;100750.69;20995799;28;20454;-72
2023/07/10 20:08:32;;;;;;;1.58;1.48;;;;;;;28.53;46.99;100753.97;20993111;28;20036;-73
2023/07/10 20:18:35;;;;;;;1.80;1.55;;;;;;;28.56;46.93;100753.31;20994404;28;20040;-72
2023/07/10 20:28:38;;;;;;;1.88;1.77;;;;;;;28.46;46.92;100742.44;20991488;28;20075;-73
2023/07/10 20:38:41;;;;;;;2.00;1.70;;;;;;;28.56;47.14;100773.84;20994539;28;20045;-74
2023/07/10 20:48:43;;;;;;;2.00;1.80;;;;;;;28.35;47.48;100737.16;20992051;28;20102;-72
2023/07/10 20:58:44;;;;;;;1.73;1.63;;;;;;;28.51;47.43;100754.31;20992469;28;20028;-73
2023/07/10 21:08:52;;;;;;;1.90;1.70;;;;;;;28.49;47.31;100753.81;20993102;28;20044;-73
2023/07/10 21:18:54;;;;;;;1.98;1.80;;;;;;;28.59;47.37;100766.69;21003723;28;20545;-71
2023/07/10 21:28:59;;;;;;;1.85;1.75;;;;;;;28.56;47.19;100771.03;21004987;28;20051;-72
2023/07/10 21:39:00;;;;;;;2.00;1.80;;;;;;;28.56;47.53;100775.84;21004208;28;20709;-73
2023/07/10 21:49:02;;;;;;;1.58;1.48;;;;;;;28.22;44.96;100765.47;21002881;28;20129;-72
2023/07/10 21:59:12;;;;;;;1.73;1.60;;;;;;;27.94;43.95;100779.09;21002709;28;20045;-72
2023/07/10 22:09:14;;;;;;;1.70;1.60;;;;;;;27.79;43.40;100786.88;21000208;28;20044;-73
2023/07/10 22:19:16;;;;;;;1.88;1.67;;;;;;;27.66;42.07;100787.84;21000729;28;20020;-73
2023/07/10 22:29:17;;;;;;;1.70;1.60;;;;;;;27.54;41.71;100804.56;20999441;28;20039;-72
2023/07/10 22:39:18;;;;;;;1.85;1.73;;;;;;;27.45;41.41;100810.16;20999677;28;20071;-73
2023/07/10 22:49:20;;;;;;;2.10;1.90;;;;;;;27.38;41.43;100797.75;20998499;28;20119;-72
2023/07/10 22:59:24;;;;;;;1.83;1.65;;;;;;;27.22;41.00;100789.81;20997416;28;20036;-73
2023/07/10 23:09:25;;;;;;;1.67;1.58;;;;;;;27.27;41.14;100795.28;21000709;28;20106;-72
2023/07/10 23:19:27;;;;;;;1.75;1.65;;;;;;;27.19;40.98;100798.06;20998492;28;20036;-73
2023/07/10 23:29:28;;;;;;;1.80;1.70;;;;;;;27.10;40.62;100809.28;20995097;28;20487;-72
2023/07/10 23:39:32;;;;;;;1.65;1.55;;;;;;;27.05;40.66;100829.06;20994174;28;20052;-73
2023/07/10 23:49:33;;;;;;;2.17;1.98;;;;;;;27.00;40.65;100854.47;20993307;28;20106;-72
2023/07/10 23:59:35;;;;;;;1.73;1.63;;;;;;;26.88;40.33;100868.28;20992914;28;20040;-70
